createdAt,value
2022-08-17T00:03:40.958Z,19.50
2022-08-17T00:07:26.919Z,19.40
2022-08-17T00:11:17.437Z,19.40
2022-08-17T00:14:59.642Z,19.50
2022-08-17T00:18:58.126Z,19.40
2022-08-17T00:22:47.793Z,19.50
2022-08-17T00:26:43.578Z,19.50
2022-08-17T00:30:29.264Z,19.40
2022-08-17T00:34:12.047Z,19.50
2022-08-17T00:37:55.623Z,19.50
2022-08-17T00:41:42.568Z,19.50
2022-08-17T00:45:25.019Z,19.50
2022-08-17T00:49:14.035Z,19.50
2022-08-17T00:52:58.037Z,19.50
2022-08-17T00:56:44.892Z,19.50
2022-08-17T01:00:35.325Z,19.40
2022-08-17T01:04:20.577Z,19.50
2022-08-17T01:08:03.825Z,19.40
2022-08-17T01:11:50.525Z,19.40
2022-08-17T01:15:46.599Z,19.40
2022-08-17T01:19:33.279Z,19.40
2022-08-17T01:23:20.802Z,19.30
2022-08-17T01:27:10.670Z,19.30
2022-08-17T01:30:58.877Z,19.30
2022-08-17T01:34:42.775Z,19.30
2022-08-17T01:38:32.589Z,19.30
2022-08-17T01:42:27.167Z,19.30
2022-08-17T01:46:09.488Z,19.30
2022-08-17T01:49:56.561Z,19.30
2022-08-17T01:53:46.508Z,19.40
2022-08-17T01:57:31.918Z,19.40
2022-08-17T02:01:16.500Z,19.30
2022-08-17T02:04:59.440Z,19.30
2022-08-17T02:09:03.296Z,19.30
2022-08-17T02:12:46.020Z,19.40
2022-08-17T02:16:29.719Z,19.40
2022-08-17T02:20:42.140Z,19.40
2022-08-17T02:24:59.964Z,19.40
2022-08-17T02:28:38.454Z,19.40
2022-08-17T02:32:42.342Z,19.40
2022-08-17T02:36:36.500Z,19.40
2022-08-17T02:40:35.596Z,19.50
2022-08-17T02:44:35.397Z,19.40
2022-08-17T02:48:30.700Z,19.50
2022-08-17T02:52:43.409Z,19.50
2022-08-17T02:56:52.307Z,19.40
2022-08-17T03:00:40.199Z,19.40
2022-08-17T03:04:26.569Z,19.50
2022-08-17T03:12:08.743Z,19.50
2022-08-17T03:15:59.287Z,19.40
2022-08-17T03:19:43.801Z,19.40
2022-08-17T03:23:28.003Z,19.50
2022-08-17T03:27:12.870Z,19.50
2022-08-17T03:31:28.257Z,19.40
2022-08-17T03:35:15.339Z,19.50
2022-08-17T03:39:03.298Z,19.50
2022-08-17T03:42:47.530Z,19.50
2022-08-17T03:46:50.353Z,19.50
2022-08-17T03:50:52.317Z,19.40
2022-08-17T03:54:53.472Z,19.50
2022-08-17T03:58:38.254Z,19.50
2022-08-17T04:02:32.887Z,19.50
2022-08-17T04:06:15.401Z,19.50
2022-08-17T04:09:58.392Z,19.50
2022-08-17T04:13:43.308Z,19.40
2022-08-17T04:21:40.828Z,19.50
2022-08-17T04:25:23.454Z,19.50
2022-08-17T04:29:06.826Z,19.50
2022-08-17T04:33:19.221Z,19.50
2022-08-17T04:37:02.027Z,19.40
2022-08-17T04:41:04.321Z,19.50
2022-08-17T04:44:46.469Z,19.40
2022-08-17T04:48:36.391Z,19.40
2022-08-17T04:52:42.652Z,19.40
2022-08-17T04:56:23.808Z,19.30
2022-08-17T05:00:07.356Z,19.30
2022-08-17T05:03:49.876Z,19.30
2022-08-17T05:07:33.268Z,19.20
2022-08-17T05:11:16.012Z,19.20
2022-08-17T05:14:59.349Z,19.10
2022-08-17T05:18:46.065Z,19.10
2022-08-17T05:22:28.150Z,19.10
2022-08-17T05:26:26.370Z,19.10
2022-08-17T05:30:09.594Z,19.10
2022-08-17T05:33:52.057Z,19.10
2022-08-17T05:37:35.217Z,19.00
2022-08-17T05:41:18.305Z,19.00
2022-08-17T05:45:00.785Z,19.00
2022-08-17T05:48:56.573Z,19.00
2022-08-17T05:52:56.547Z,19.00
2022-08-17T05:56:55.786Z,19.00
2022-08-17T06:00:50.954Z,19.10
2022-08-17T06:05:10.693Z,19.10
2022-08-17T06:09:26.642Z,19.20
2022-08-17T06:13:33.963Z,19.30
2022-08-17T06:17:20.672Z,19.30
2022-08-17T06:21:08.609Z,19.40
2022-08-17T06:24:53.476Z,19.50
2022-08-17T06:28:57.704Z,19.50
2022-08-17T06:32:44.290Z,19.50
2022-08-17T06:36:47.359Z,19.60
2022-08-17T06:40:45.723Z,19.60
2022-08-17T06:44:51.238Z,19.70
2022-08-17T06:48:47.906Z,19.70
2022-08-17T06:52:45.696Z,19.80
2022-08-17T06:56:53.745Z,19.80
2022-08-17T07:00:43.021Z,19.80
2022-08-17T07:04:31.240Z,19.80
2022-08-17T07:08:54.884Z,19.80
2022-08-17T07:12:41.251Z,19.90
2022-08-17T07:16:48.329Z,19.90
2022-08-17T07:20:31.779Z,19.90
2022-08-17T07:24:33.910Z,20.00
2022-08-17T07:28:31.227Z,20.00
2022-08-17T07:52:00.477Z,20.60
2022-08-17T08:00:24.119Z,20.80
2022-08-17T08:05:02.073Z,20.90
2022-08-17T08:13:23.119Z,21.20
2022-08-17T08:17:09.381Z,21.50
2022-08-17T08:21:23.081Z,21.70
2022-08-17T08:25:18.587Z,22.00
2022-08-17T08:34:59.103Z,22.20
2022-08-17T08:38:53.976Z,22.30
2022-08-17T08:43:00.019Z,22.20
2022-08-17T08:47:07.786Z,22.40
2022-08-17T08:51:08.679Z,22.60
2022-08-17T08:55:52.424Z,22.70
2022-08-17T09:05:10.286Z,22.70
2022-08-17T09:09:22.391Z,22.80
2022-08-17T09:13:19.602Z,23.00
2022-08-17T09:17:42.282Z,23.20
2022-08-17T09:22:12.541Z,23.10
2022-08-17T09:26:17.394Z,22.90
2022-08-17T09:30:05.472Z,23.00
2022-08-17T09:33:51.888Z,23.40
2022-08-17T09:38:32.192Z,24.00
2022-08-17T09:42:55.140Z,24.20
2022-08-17T09:47:27.897Z,24.70
2022-08-17T09:51:23.379Z,25.30
2022-08-17T09:55:05.981Z,25.60
2022-08-17T09:58:57.590Z,25.60
2022-08-17T10:03:18.926Z,25.70
2022-08-17T10:07:25.312Z,26.50
2022-08-17T10:12:03.634Z,26.80
2022-08-17T10:21:14.967Z,26.60
2022-08-17T10:25:42.579Z,27.20
2022-08-17T10:29:49.021Z,27.80
2022-08-17T10:33:48.526Z,27.60
2022-08-17T10:37:38.829Z,27.30
2022-08-17T10:41:46.062Z,27.10
2022-08-17T10:45:51.012Z,27.00
2022-08-17T10:50:21.248Z,27.00
2022-08-17T10:54:29.958Z,27.00
2022-08-17T10:58:23.098Z,27.30
2022-08-17T11:02:15.604Z,27.10
2022-08-17T11:06:22.083Z,27.00
2022-08-17T11:11:07.492Z,27.00
2022-08-17T11:14:58.802Z,26.90
2022-08-17T11:19:16.948Z,26.80
2022-08-17T11:23:13.628Z,26.90
2022-08-17T11:27:25.595Z,26.90
2022-08-17T11:31:40.492Z,26.70
2022-08-17T11:35:30.710Z,26.90
2022-08-17T11:39:30.990Z,26.90
2022-08-17T11:44:02.060Z,26.60
2022-08-17T11:48:27.914Z,26.30
2022-08-17T11:52:35.208Z,26.40
2022-08-17T11:56:42.062Z,26.50
2022-08-17T12:00:46.053Z,26.90
2022-08-17T12:04:39.219Z,27.00
2022-08-17T12:08:23.778Z,27.50
2022-08-17T12:12:20.315Z,27.90
2022-08-17T12:16:04.813Z,28.20
2022-08-17T12:19:47.895Z,29.10
2022-08-17T12:24:10.465Z,29.20
2022-08-17T12:28:06.631Z,29.20
2022-08-17T12:31:54.699Z,29.90
2022-08-17T12:36:12.772Z,29.90
2022-08-17T12:40:18.318Z,29.60
2022-08-17T12:44:12.578Z,29.40
2022-08-17T12:48:24.000Z,29.20
2022-08-17T12:52:16.982Z,29.60
2022-08-17T13:00:10.005Z,30.10
2022-08-17T13:03:59.991Z,29.60
2022-08-17T13:07:44.924Z,29.40
2022-08-17T13:11:29.202Z,29.50
2022-08-17T13:15:22.204Z,29.80
2022-08-17T13:19:15.310Z,30.60
2022-08-17T13:23:01.162Z,31.70
2022-08-17T13:27:20.247Z,32.80
2022-08-17T13:31:33.713Z,33.50
2022-08-17T13:35:40.351Z,33.30
2022-08-17T13:39:25.869Z,32.50
2022-08-17T13:43:45.896Z,31.80
2022-08-17T13:47:33.330Z,32.20
2022-08-17T13:51:32.279Z,33.10
2022-08-17T13:55:34.660Z,32.90
2022-08-17T13:59:54.673Z,32.60
2022-08-17T14:03:39.001Z,32.00
2022-08-17T14:07:34.718Z,31.10
2022-08-17T14:11:25.656Z,30.30
2022-08-17T14:15:09.679Z,29.60
2022-08-17T14:18:56.995Z,29.10
2022-08-17T14:22:49.227Z,28.90
2022-08-17T14:26:33.788Z,28.60
2022-08-17T14:30:18.980Z,28.40
2022-08-17T14:34:00.951Z,28.10
2022-08-17T14:37:45.794Z,27.80
2022-08-17T14:41:27.997Z,27.60
2022-08-17T14:45:31.621Z,27.30
2022-08-17T14:49:17.000Z,27.10
2022-08-17T14:53:01.639Z,27.00
2022-08-17T14:56:45.343Z,26.80
2022-08-17T15:00:28.768Z,26.60
2022-08-17T15:04:19.145Z,26.50
2022-08-17T15:08:02.006Z,26.40
2022-08-17T15:11:44.538Z,26.30
2022-08-17T15:15:28.295Z,26.20
2022-08-17T15:19:11.545Z,26.10
2022-08-17T15:22:57.739Z,26.10
2022-08-17T15:26:42.267Z,26.00
2022-08-17T15:30:26.266Z,26.00
2022-08-17T15:34:15.752Z,26.00
2022-08-17T15:38:10.764Z,25.90
2022-08-17T15:41:58.729Z,25.80
2022-08-17T15:45:41.358Z,25.90
2022-08-17T15:49:23.454Z,25.90
2022-08-17T15:53:05.795Z,26.00
2022-08-17T15:56:47.860Z,26.00
2022-08-17T16:00:30.654Z,26.00
2022-08-17T16:04:29.531Z,25.90
2022-08-17T16:08:17.093Z,25.80
2022-08-17T16:12:16.880Z,25.70
2022-08-17T16:15:59.143Z,25.70
2022-08-17T16:19:41.571Z,25.60
2022-08-17T16:23:24.078Z,25.60
2022-08-17T16:27:12.640Z,25.50
2022-08-17T16:30:54.907Z,25.50
2022-08-17T16:34:37.330Z,25.50
2022-08-17T16:38:19.491Z,25.40
2022-08-17T16:42:03.041Z,25.40
2022-08-17T16:45:49.908Z,25.30
2022-08-17T16:49:36.963Z,25.20
2022-08-17T16:53:20.265Z,25.20
2022-08-17T16:57:05.221Z,25.20
2022-08-17T17:00:48.944Z,25.20
2022-08-17T17:04:35.220Z,25.10
2022-08-17T17:08:30.531Z,25.10
2022-08-17T17:12:18.895Z,25.00
2022-08-17T17:16:24.406Z,24.90
2022-08-17T17:20:12.243Z,24.80
2022-08-17T17:24:00.163Z,24.70
2022-08-17T17:28:05.462Z,24.60
2022-08-17T17:32:21.240Z,24.50
2022-08-17T17:36:25.882Z,24.50
2022-08-17T17:40:16.676Z,24.50
2022-08-17T17:44:10.343Z,24.40
2022-08-17T17:47:53.527Z,24.30
2022-08-17T17:52:18.553Z,24.30
2022-08-17T17:56:35.596Z,24.20
2022-08-17T18:00:25.620Z,24.10
2022-08-17T18:04:20.493Z,24.10
2022-08-17T18:08:17.854Z,24.00
2022-08-17T18:12:31.566Z,23.90
2022-08-17T18:16:14.658Z,23.80
2022-08-17T18:19:56.711Z,23.60
2022-08-17T18:23:52.026Z,23.50
2022-08-17T18:27:51.361Z,23.40
2022-08-17T18:31:33.670Z,23.30
2022-08-17T18:35:18.579Z,23.10
2022-08-17T18:39:18.141Z,23.00
2022-08-17T18:43:13.860Z,22.80
2022-08-17T18:47:13.854Z,22.70
2022-08-17T18:51:20.013Z,22.60
2022-08-17T18:55:20.158Z,22.50
2022-08-17T18:59:24.894Z,22.30
2022-08-17T19:03:26.636Z,22.20
2022-08-17T19:07:34.920Z,22.10
2022-08-17T19:11:35.141Z,22.10
2022-08-17T19:15:24.918Z,22.10
2022-08-17T19:19:16.039Z,22.00
2022-08-17T19:23:11.814Z,22.00
2022-08-17T19:26:58.978Z,22.10
2022-08-17T19:30:41.984Z,22.10
2022-08-17T19:34:33.411Z,22.10
2022-08-17T19:38:39.763Z,22.10
2022-08-17T19:42:34.281Z,22.10
2022-08-17T19:46:28.923Z,22.10
2022-08-17T19:50:38.543Z,22.00
2022-08-17T19:54:34.824Z,22.00
2022-08-17T19:58:25.058Z,22.00
2022-08-17T20:02:37.333Z,22.00
2022-08-17T20:06:20.992Z,21.90
2022-08-17T20:10:08.382Z,21.90
2022-08-17T20:14:00.500Z,21.80
2022-08-17T20:17:45.649Z,21.80
2022-08-17T20:21:53.231Z,21.80
2022-08-17T20:25:50.090Z,21.80
2022-08-17T20:29:39.803Z,21.80
2022-08-17T20:33:42.881Z,21.70
2022-08-17T20:37:31.339Z,21.70
2022-08-17T20:41:17.695Z,21.70
2022-08-17T20:45:23.561Z,21.70
2022-08-17T20:49:14.954Z,21.60
2022-08-17T20:53:00.699Z,21.60
2022-08-17T20:56:46.759Z,21.60
2022-08-17T21:00:28.705Z,21.50
2022-08-17T21:04:46.448Z,21.50
2022-08-17T21:08:33.611Z,21.50
2022-08-17T21:12:41.149Z,21.40
2022-08-17T21:16:58.708Z,21.40
2022-08-17T21:21:02.528Z,21.40
2022-08-17T21:25:18.495Z,21.30
2022-08-17T21:29:32.315Z,21.30
2022-08-17T21:33:25.469Z,21.20
2022-08-17T21:37:23.545Z,21.20
2022-08-17T21:41:06.365Z,21.20
2022-08-17T21:44:52.497Z,21.30
2022-08-17T21:48:44.719Z,21.20
2022-08-17T21:52:30.894Z,21.20
2022-08-17T21:56:22.333Z,21.20
2022-08-17T22:00:16.033Z,21.10
2022-08-17T22:04:17.992Z,21.10
2022-08-17T22:08:18.659Z,21.10
2022-08-17T22:12:18.983Z,21.10
2022-08-17T22:16:28.293Z,21.00
2022-08-17T22:20:14.665Z,21.00
2022-08-17T22:24:17.866Z,21.00
2022-08-17T22:28:12.277Z,21.00
2022-08-17T22:31:57.464Z,21.00
2022-08-17T22:35:43.799Z,21.00
2022-08-17T22:39:35.834Z,21.00
2022-08-17T22:43:26.465Z,21.00
2022-08-17T22:47:21.626Z,21.00
2022-08-17T22:51:12.336Z,21.00
2022-08-17T22:55:25.882Z,20.90
2022-08-17T22:59:23.964Z,20.90
2022-08-17T23:03:16.730Z,20.80
2022-08-17T23:06:59.155Z,20.80
2022-08-17T23:10:43.473Z,20.70
2022-08-17T23:14:31.712Z,20.70
2022-08-17T23:18:13.804Z,20.60
2022-08-17T23:21:57.067Z,20.60
2022-08-17T23:25:39.060Z,20.50
2022-08-17T23:29:21.715Z,20.60
2022-08-17T23:33:10.454Z,20.50
2022-08-17T23:36:53.291Z,20.50
2022-08-17T23:40:35.394Z,20.50
2022-08-17T23:44:18.416Z,20.50
2022-08-17T23:48:00.475Z,20.50
2022-08-17T23:51:42.825Z,20.50
2022-08-17T23:55:25.004Z,20.50
2022-08-17T23:59:07.010Z,20.50
